ADDS METAR Data INFO
IDs: Format: Raw Decoded Include TAF

Data at: 1113 UTC 17 Jul 2018

KMTJ 171053Z AUTO 13006KT 10SM CLR 21/09 A3028 RMK AO2 SLP155 T02110094
KMTJ 170953Z AUTO 14006KT 10SM CLR 22/08 A3027 RMK AO2 SLP150 T02170078
KMTJ 170853Z AUTO 11005KT 10SM CLR 22/07 A3025 RMK AO2 SLP143 T02220072 53005
KMTJ 170753Z AUTO 11007KT 10SM CLR 23/08 A3023 RMK AO2 SLP137 T02330078
KMTJ 170653Z AUTO 11011KT 10SM CLR 24/08 A3024 RMK AO2 SLP142 T02390078 403440156
KMTJ 170553Z AUTO 11011KT 10SM FEW120 25/07 A3023 RMK AO2 SLP138 T02500072 10333 20250 51019
KMTJ 170453Z AUTO 11011KT 10SM CLR 26/07 A3023 RMK AO2 SLP137 T02560067
KMTJ 170353Z AUTO 14007KT 10SM FEW110 28/03 A3022 RMK AO2 SLP136 T02780033
KMTJ 170253Z AUTO 31008KT 10SM CLR 28/02 A3017 RMK AO2 SLP123 T02780022 53014
KMTJ 170153Z AUTO 32011KT 10SM FEW120 30/03 A3014 RMK AO2 SLP114 T03000033
KMTJ 170053Z AUTO 30006KT 10SM CLR 32/03 A3012 RMK AO2 SLP108 T03220033
KMTJ 162353Z AUTO 32008KT 10SM CLR 33/01 A3012 RMK AO2 SLP107 T03280011 10344 20289 56013
KMTJ 162253Z AUTO 29012KT 10SM CLR 33/02 A3013 RMK AO2 SLP111 T03330017
KMTJ 162153Z AUTO 27009KT 10SM CLR 33/03 A3014 RMK AO2 SLP115 T03330028
KMTJ 162053Z AUTO 34009KT 10SM CLR 33/M02 A3017 RMK AO2 SLP122 T03281017 58025
KMTJ 161953Z AUTO 31007KT 10SM CLR 32/02 A3020 RMK AO2 SLP133 T03170022
KMTJ 161853Z AUTO VRB03KT 10SM CLR 30/03 A3022 RMK AO2 SLP142 T03000033
KMTJ 161753Z AUTO 27006KT 10SM CLR 29/05 A3025 RMK AO2 SLP152 T02940050 10294 20156 58014
KMTJ 161653Z AUTO VRB03KT 10SM CLR 27/08 A3027 RMK AO2 SLP160 T02720083
KMTJ 161553Z AUTO 00000KT 10SM CLR 24/09 A3029 RMK AO2 SLP170 T02440089
KMTJ 161453Z AUTO 00000KT 10SM CLR 22/08 A3030 RMK AO2 SLP177 T02170083 51007
KMTJ 161353Z AUTO 19003KT 10SM CLR 18/10 A3029 RMK AO2 SLP177 T01830100
KMTJ 161253Z AUTO 00000KT 10SM CLR 17/09 A3030 RMK AO2 SLP180 T01670094
KMTJ 161153Z AUTO 14004KT 10SM CLR 16/09 A3028 RMK AO2 SLP173 T01610089 10206 20156 53005
KMTJ 161053Z AUTO 13006KT 10SM CLR 17/09 A3027 RMK AO2 SLP168 T01670089
KMTJ 160953Z AUTO 14009KT 10SM CLR 17/10 A3026 RMK AO2 SLP167 T01670100
KMTJ 160853Z AUTO 16005KT 10SM CLR 17/09 A3026 RMK AO2 SLP160 T01720094 58001
KMTJ 160753Z AUTO 16007KT 10SM CLR 18/10 A3027 RMK AO2 SLP163 T01830100
KMTJ 160653Z AUTO VRB03KT 10SM CLR 19/10 A3027 RMK AO2 SLP166 T01940100 402940178
KMTJ 160553Z AUTO 10006KT 10SM CLR 21/11 A3026 RMK AO2 SLP165 T02060106 10267 20206 51012
KMTJ 160453Z AUTO 11007KT 10SM CLR 22/11 A3026 RMK AO2 SLP165 T02170106
KMTJ 160353Z AUTO 11012G19KT 10SM CLR 22/11 A3025 RMK AO2 SLP164 T02220111
KMTJ 160253Z AUTO 11011G19KT 10SM FEW120 23/11 A3022 RMK AO2 SLP154 T02330106 51008
KMTJ 160153Z AUTO 11017G23KT 10SM FEW100 26/09 A3021 RMK AO2 SLP148 T02560094
KMTJ 160053Z AUTO 14018KT 10SM FEW100 26/09 A3021 RMK AO2 PK WND 15032/0014 LTG DSNT N SLP147 T02610094
KMTJ 152353Z AUTO 15025G32KT 10SM CLR 27/10 A3019 RMK AO2 PK WND 15032/2351 LTG DSNT N SLP140 T02720100 10294 20239 58004